sensor_id;sensor_type;location;lat;lon;timestamp;P1;durP1;ratioP1;P2;durP2;ratioP2
58681;SDS011;44460;40.162;18.294;2023-04-15T00:02:17;19.55;;;2.50;;
58681;SDS011;44460;40.162;18.294;2023-04-15T00:04:43;16.77;;;3.55;;
58681;SDS011;44460;40.162;18.294;2023-04-15T00:07:09;18.00;;;2.95;;
58681;SDS011;44460;40.162;18.294;2023-04-15T00:09:35;12.52;;;3.00;;
58681;SDS011;44460;40.162;18.294;2023-04-15T00:12:00;16.27;;;3.53;;
58681;SDS011;44460;40.162;18.294;2023-04-15T00:14:26;17.17;;;2.97;;
58681;SDS011;44460;40.162;18.294;2023-04-15T00:16:52;16.58;;;2.85;;
58681;SDS011;44460;40.162;18.294;2023-04-15T00:21:45;15.00;;;2.97;;
58681;SDS011;44460;40.162;18.294;2023-04-15T00:24:11;19.23;;;3.00;;
58681;SDS011;44460;40.162;18.294;2023-04-15T00:26:37;18.58;;;2.95;;
58681;SDS011;44460;40.162;18.294;2023-04-15T00:29:03;13.20;;;2.38;;
58681;SDS011;44460;40.162;18.294;2023-04-15T00:31:29;16.48;;;3.05;;
58681;SDS011;44460;40.162;18.294;2023-04-15T00:33:54;17.13;;;3.10;;
58681;SDS011;44460;40.162;18.294;2023-04-15T00:36:20;16.20;;;3.35;;
58681;SDS011;44460;40.162;18.294;2023-04-15T00:38:46;14.10;;;2.72;;
58681;SDS011;44460;40.162;18.294;2023-04-15T00:41:12;15.80;;;2.67;;
58681;SDS011;44460;40.162;18.294;2023-04-15T00:43:38;22.25;;;3.40;;
58681;SDS011;44460;40.162;18.294;2023-04-15T00:46:04;18.13;;;3.38;;
58681;SDS011;44460;40.162;18.294;2023-04-15T00:48:30;14.38;;;2.25;;
58681;SDS011;44460;40.162;18.294;2023-04-15T00:50:56;19.15;;;2.58;;
58681;SDS011;44460;40.162;18.294;2023-04-15T00:53:22;16.05;;;2.95;;
58681;SDS011;44460;40.162;18.294;2023-04-15T00:55:48;14.27;;;2.72;;
58681;SDS011;44460;40.162;18.294;2023-04-15T00:58:13;12.95;;;3.00;;
58681;SDS011;44460;40.162;18.294;2023-04-15T01:00:40;14.55;;;3.72;;
58681;SDS011;44460;40.162;18.294;2023-04-15T01:03:06;14.93;;;2.90;;
58681;SDS011;44460;40.162;18.294;2023-04-15T01:05:32;16.80;;;2.80;;
58681;SDS011;44460;40.162;18.294;2023-04-15T01:07:58;16.67;;;2.67;;
58681;SDS011;44460;40.162;18.294;2023-04-15T01:10:24;22.77;;;4.05;;
58681;SDS011;44460;40.162;18.294;2023-04-15T01:12:49;18.83;;;2.97;;
58681;SDS011;44460;40.162;18.294;2023-04-15T01:15:15;23.00;;;3.42;;
58681;SDS011;44460;40.162;18.294;2023-04-15T01:17:41;14.50;;;3.03;;
58681;SDS011;44460;40.162;18.294;2023-04-15T01:20:07;17.77;;;2.92;;
58681;SDS011;44460;40.162;18.294;2023-04-15T01:22:34;20.65;;;3.10;;
58681;SDS011;44460;40.162;18.294;2023-04-15T01:25:00;14.95;;;2.30;;
58681;SDS011;44460;40.162;18.294;2023-04-15T01:27:29;13.20;;;3.13;;
58681;SDS011;44460;40.162;18.294;2023-04-15T01:29:55;16.38;;;2.78;;
58681;SDS011;44460;40.162;18.294;2023-04-15T01:32:20;12.27;;;2.42;;
58681;SDS011;44460;40.162;18.294;2023-04-15T01:34:46;18.70;;;3.75;;
58681;SDS011;44460;40.162;18.294;2023-04-15T01:37:12;16.05;;;2.63;;
58681;SDS011;44460;40.162;18.294;2023-04-15T01:39:38;14.30;;;2.63;;
58681;SDS011;44460;40.162;18.294;2023-04-15T01:42:03;17.35;;;2.65;;
58681;SDS011;44460;40.162;18.294;2023-04-15T01:44:29;16.92;;;3.80;;
58681;SDS011;44460;40.162;18.294;2023-04-15T01:46:54;16.13;;;2.88;;
58681;SDS011;44460;40.162;18.294;2023-04-15T01:49:20;15.13;;;2.53;;
58681;SDS011;44460;40.162;18.294;2023-04-15T01:51:45;16.00;;;2.90;;
58681;SDS011;44460;40.162;18.294;2023-04-15T01:54:11;16.75;;;2.85;;
58681;SDS011;44460;40.162;18.294;2023-04-15T01:56:37;16.80;;;2.80;;
58681;SDS011;44460;40.162;18.294;2023-04-15T01:59:03;40.38;;;4.05;;
58681;SDS011;44460;40.162;18.294;2023-04-15T02:01:28;19.13;;;2.55;;
58681;SDS011;44460;40.162;18.294;2023-04-15T02:03:56;17.60;;;3.78;;
58681;SDS011;44460;40.162;18.294;2023-04-15T02:06:22;20.60;;;3.30;;
58681;SDS011;44460;40.162;18.294;2023-04-15T02:08:47;15.75;;;3.08;;
58681;SDS011;44460;40.162;18.294;2023-04-15T02:11:13;14.63;;;2.80;;
58681;SDS011;44460;40.162;18.294;2023-04-15T02:13:39;15.65;;;2.80;;
58681;SDS011;44460;40.162;18.294;2023-04-15T02:16:14;18.15;;;3.10;;
58681;SDS011;44460;40.162;18.294;2023-04-15T02:18:43;20.25;;;3.22;;
58681;SDS011;44460;40.162;18.294;2023-04-15T02:21:08;13.10;;;2.63;;
58681;SDS011;44460;40.162;18.294;2023-04-15T02:23:36;20.25;;;2.70;;
58681;SDS011;44460;40.162;18.294;2023-04-15T02:26:02;14.82;;;2.22;;
58681;SDS011;44460;40.162;18.294;2023-04-15T02:28:30;17.05;;;2.90;;
58681;SDS011;44460;40.162;18.294;2023-04-15T02:30:55;13.82;;;2.15;;
58681;SDS011;44460;40.162;18.294;2023-04-15T02:33:23;15.13;;;3.17;;
58681;SDS011;44460;40.162;18.294;2023-04-15T02:35:49;14.10;;;2.40;;
58681;SDS011;44460;40.162;18.294;2023-04-15T02:38:15;14.20;;;2.60;;
58681;SDS011;44460;40.162;18.294;2023-04-15T02:40:42;13.90;;;2.08;;
58681;SDS011;44460;40.162;18.294;2023-04-15T02:43:07;13.07;;;2.67;;
58681;SDS011;44460;40.162;18.294;2023-04-15T02:45:33;14.57;;;2.78;;
58681;SDS011;44460;40.162;18.294;2023-04-15T02:48:01;10.57;;;2.10;;
58681;SDS011;44460;40.162;18.294;2023-04-15T02:50:30;17.75;;;3.55;;
58681;SDS011;44460;40.162;18.294;2023-04-15T02:52:56;12.20;;;1.73;;
58681;SDS011;44460;40.162;18.294;2023-04-15T02:55:21;15.77;;;2.50;;
58681;SDS011;44460;40.162;18.294;2023-04-15T02:57:47;12.38;;;2.38;;
58681;SDS011;44460;40.162;18.294;2023-04-15T03:00:13;14.80;;;2.38;;
58681;SDS011;44460;40.162;18.294;2023-04-15T03:02:43;11.57;;;2.28;;
58681;SDS011;44460;40.162;18.294;2023-04-15T03:05:12;11.75;;;3.28;;
58681;SDS011;44460;40.162;18.294;2023-04-15T03:07:40;15.98;;;2.60;;
58681;SDS011;44460;40.162;18.294;2023-04-15T03:10:06;15.63;;;2.53;;
58681;SDS011;44460;40.162;18.294;2023-04-15T03:12:31;14.15;;;2.78;;
58681;SDS011;44460;40.162;18.294;2023-04-15T03:14:58;13.18;;;2.30;;
58681;SDS011;44460;40.162;18.294;2023-04-15T03:17:31;15.70;;;2.55;;
58681;SDS011;44460;40.162;18.294;2023-04-15T03:19:57;12.98;;;2.20;;
58681;SDS011;44460;40.162;18.294;2023-04-15T03:22:23;16.00;;;2.13;;
58681;SDS011;44460;40.162;18.294;2023-04-15T03:24:50;12.63;;;2.20;;
58681;SDS011;44460;40.162;18.294;2023-04-15T03:27:16;23.08;;;2.97;;
58681;SDS011;44460;40.162;18.294;2023-04-15T03:29:41;16.85;;;2.20;;
58681;SDS011;44460;40.162;18.294;2023-04-15T03:32:07;15.02;;;2.72;;
58681;SDS011;44460;40.162;18.294;2023-04-15T03:34:33;11.10;;;1.83;;
58681;SDS011;44460;40.162;18.294;2023-04-15T03:36:58;17.02;;;2.97;;
58681;SDS011;44460;40.162;18.294;2023-04-15T03:39:24;11.32;;;3.15;;
58681;SDS011;44460;40.162;18.294;2023-04-15T03:41:49;13.07;;;2.53;;
58681;SDS011;44460;40.162;18.294;2023-04-15T03:44:15;15.48;;;2.40;;
58681;SDS011;44460;40.162;18.294;2023-04-15T03:46:40;16.08;;;2.25;;
58681;SDS011;44460;40.162;18.294;2023-04-15T03:49:06;20.10;;;2.88;;
58681;SDS011;44460;40.162;18.294;2023-04-15T03:51:31;13.25;;;2.22;;
58681;SDS011;44460;40.162;18.294;2023-04-15T03:53:57;14.93;;;2.63;;
58681;SDS011;44460;40.162;18.294;2023-04-15T03:56:23;9.73;;;2.08;;
58681;SDS011;44460;40.162;18.294;2023-04-15T03:58:48;17.85;;;2.50;;
58681;SDS011;44460;40.162;18.294;2023-04-15T04:01:14;18.05;;;2.30;;
58681;SDS011;44460;40.162;18.294;2023-04-15T04:03:39;15.43;;;2.20;;
58681;SDS011;44460;40.162;18.294;2023-04-15T04:06:05;12.65;;;1.88;;
58681;SDS011;44460;40.162;18.294;2023-04-15T04:08:30;18.83;;;3.10;;
58681;SDS011;44460;40.162;18.294;2023-04-15T04:10:56;17.58;;;2.55;;
58681;SDS011;44460;40.162;18.294;2023-04-15T04:13:22;10.60;;;2.47;;
58681;SDS011;44460;40.162;18.294;2023-04-15T04:15:47;15.95;;;2.42;;
58681;SDS011;44460;40.162;18.294;2023-04-15T04:18:13;12.30;;;2.05;;
58681;SDS011;44460;40.162;18.294;2023-04-15T04:20:38;15.68;;;3.78;;
58681;SDS011;44460;40.162;18.294;2023-04-15T04:23:04;14.95;;;3.08;;
58681;SDS011;44460;40.162;18.294;2023-04-15T04:25:29;15.70;;;3.00;;
58681;SDS011;44460;40.162;18.294;2023-04-15T04:28:15;18.10;;;2.55;;
58681;SDS011;44460;40.162;18.294;2023-04-15T04:30:40;13.73;;;3.70;;
58681;SDS011;44460;40.162;18.294;2023-04-15T04:33:06;15.10;;;2.78;;
58681;SDS011;44460;40.162;18.294;2023-04-15T04:35:31;19.50;;;3.00;;
58681;SDS011;44460;40.162;18.294;2023-04-15T04:37:59;12.93;;;2.85;;
58681;SDS011;44460;40.162;18.294;2023-04-15T04:40:25;11.90;;;2.33;;
58681;SDS011;44460;40.162;18.294;2023-04-15T04:42:50;15.95;;;2.28;;
58681;SDS011;44460;40.162;18.294;2023-04-15T04:45:16;16.55;;;3.67;;
58681;SDS011;44460;40.162;18.294;2023-04-15T04:47:41;16.75;;;4.65;;
58681;SDS011;44460;40.162;18.294;2023-04-15T04:50:07;15.43;;;3.20;;
58681;SDS011;44460;40.162;18.294;2023-04-15T04:52:33;16.92;;;2.97;;
58681;SDS011;44460;40.162;18.294;2023-04-15T04:54:58;18.85;;;3.30;;
58681;SDS011;44460;40.162;18.294;2023-04-15T04:57:24;13.80;;;3.03;;
58681;SDS011;44460;40.162;18.294;2023-04-15T04:59:49;18.52;;;3.13;;
58681;SDS011;44460;40.162;18.294;2023-04-15T05:02:15;18.73;;;2.83;;
58681;SDS011;44460;40.162;18.294;2023-04-15T05:04:41;18.52;;;2.90;;
58681;SDS011;44460;40.162;18.294;2023-04-15T05:07:06;14.68;;;2.92;;
58681;SDS011;44460;40.162;18.294;2023-04-15T05:09:32;15.40;;;2.80;;
58681;SDS011;44460;40.162;18.294;2023-04-15T05:12:00;19.25;;;3.70;;
58681;SDS011;44460;40.162;18.294;2023-04-15T05:14:25;19.75;;;3.33;;
58681;SDS011;44460;40.162;18.294;2023-04-15T05:16:51;13.85;;;3.38;;
58681;SDS011;44460;40.162;18.294;2023-04-15T05:19:16;15.13;;;3.00;;
58681;SDS011;44460;40.162;18.294;2023-04-15T05:21:42;20.52;;;3.80;;
58681;SDS011;44460;40.162;18.294;2023-04-15T05:24:08;21.52;;;4.15;;
58681;SDS011;44460;40.162;18.294;2023-04-15T05:26:33;17.33;;;3.83;;
58681;SDS011;44460;40.162;18.294;2023-04-15T05:28:59;14.55;;;3.30;;
58681;SDS011;44460;40.162;18.294;2023-04-15T05:31:24;16.67;;;3.45;;
58681;SDS011;44460;40.162;18.294;2023-04-15T05:33:50;15.00;;;3.17;;
58681;SDS011;44460;40.162;18.294;2023-04-15T05:36:16;14.60;;;3.63;;
58681;SDS011;44460;40.162;18.294;2023-04-15T05:38:41;11.43;;;3.25;;
58681;SDS011;44460;40.162;18.294;2023-04-15T05:41:07;22.08;;;4.03;;
58681;SDS011;44460;40.162;18.294;2023-04-15T05:43:32;15.70;;;3.22;;
58681;SDS011;44460;40.162;18.294;2023-04-15T05:45:58;12.40;;;3.13;;
58681;SDS011;44460;40.162;18.294;2023-04-15T05:48:23;13.95;;;3.03;;
58681;SDS011;44460;40.162;18.294;2023-04-15T05:50:49;11.52;;;2.60;;
58681;SDS011;44460;40.162;18.294;2023-04-15T05:53:14;11.00;;;2.60;;
58681;SDS011;44460;40.162;18.294;2023-04-15T05:55:40;15.52;;;2.90;;
58681;SDS011;44460;40.162;18.294;2023-04-15T05:58:06;12.63;;;2.25;;
58681;SDS011;44460;40.162;18.294;2023-04-15T06:00:31;12.40;;;2.50;;
58681;SDS011;44460;40.162;18.294;2023-04-15T06:02:57;10.25;;;2.58;;
58681;SDS011;44460;40.162;18.294;2023-04-15T06:05:23;13.70;;;2.88;;
58681;SDS011;44460;40.162;18.294;2023-04-15T06:07:49;13.77;;;2.90;;
58681;SDS011;44460;40.162;18.294;2023-04-15T06:10:14;10.50;;;2.20;;
58681;SDS011;44460;40.162;18.294;2023-04-15T06:12:40;11.63;;;2.30;;
58681;SDS011;44460;40.162;18.294;2023-04-15T06:15:05;14.40;;;2.92;;
58681;SDS011;44460;40.162;18.294;2023-04-15T06:17:31;13.63;;;2.67;;
58681;SDS011;44460;40.162;18.294;2023-04-15T06:19:57;9.35;;;2.60;;
58681;SDS011;44460;40.162;18.294;2023-04-15T06:22:23;10.80;;;2.58;;
58681;SDS011;44460;40.162;18.294;2023-04-15T06:24:48;15.32;;;2.55;;
58681;SDS011;44460;40.162;18.294;2023-04-15T06:27:17;20.85;;;3.97;;
58681;SDS011;44460;40.162;18.294;2023-04-15T06:29:43;12.02;;;2.15;;
58681;SDS011;44460;40.162;18.294;2023-04-15T06:32:08;16.75;;;2.90;;
58681;SDS011;44460;40.162;18.294;2023-04-15T06:34:34;15.70;;;2.22;;
58681;SDS011;44460;40.162;18.294;2023-04-15T06:36:59;10.27;;;2.08;;
58681;SDS011;44460;40.162;18.294;2023-04-15T06:39:25;13.05;;;2.10;;
58681;SDS011;44460;40.162;18.294;2023-04-15T06:41:51;11.43;;;2.42;;
58681;SDS011;44460;40.162;18.294;2023-04-15T06:44:19;14.18;;;1.98;;
58681;SDS011;44460;40.162;18.294;2023-04-15T06:46:45;8.45;;;2.33;;
58681;SDS011;44460;40.162;18.294;2023-04-15T06:49:10;14.70;;;2.42;;
58681;SDS011;44460;40.162;18.294;2023-04-15T06:51:37;8.73;;;2.30;;
58681;SDS011;44460;40.162;18.294;2023-04-15T06:54:03;11.43;;;2.10;;
58681;SDS011;44460;40.162;18.294;2023-04-15T06:56:33;8.87;;;1.83;;
58681;SDS011;44460;40.162;18.294;2023-04-15T06:58:59;10.10;;;2.03;;
58681;SDS011;44460;40.162;18.294;2023-04-15T07:01:25;13.32;;;2.45;;
58681;SDS011;44460;40.162;18.294;2023-04-15T07:03:50;12.20;;;2.40;;
58681;SDS011;44460;40.162;18.294;2023-04-15T07:06:16;19.10;;;3.67;;
58681;SDS011;44460;40.162;18.294;2023-04-15T07:08:42;13.40;;;6.60;;
58681;SDS011;44460;40.162;18.294;2023-04-15T07:11:07;13.60;;;5.63;;
58681;SDS011;44460;40.162;18.294;2023-04-15T07:13:33;19.73;;;6.60;;
58681;SDS011;44460;40.162;18.294;2023-04-15T07:15:58;16.25;;;5.13;;
58681;SDS011;44460;40.162;18.294;2023-04-15T07:18:24;10.98;;;3.80;;
58681;SDS011;44460;40.162;18.294;2023-04-15T07:20:49;32.40;;;5.43;;
58681;SDS011;44460;40.162;18.294;2023-04-15T07:23:15;73.05;;;7.32;;
58681;SDS011;44460;40.162;18.294;2023-04-15T07:25:41;31.33;;;5.15;;
58681;SDS011;44460;40.162;18.294;2023-04-15T07:28:06;17.15;;;4.18;;
58681;SDS011;44460;40.162;18.294;2023-04-15T07:30:32;19.77;;;3.45;;
58681;SDS011;44460;40.162;18.294;2023-04-15T07:32:57;12.23;;;2.97;;
58681;SDS011;44460;40.162;18.294;2023-04-15T07:35:23;19.75;;;3.63;;
58681;SDS011;44460;40.162;18.294;2023-04-15T07:37:49;11.70;;;2.70;;
58681;SDS011;44460;40.162;18.294;2023-04-15T07:40:15;14.90;;;3.00;;
58681;SDS011;44460;40.162;18.294;2023-04-15T07:42:40;13.13;;;3.20;;
58681;SDS011;44460;40.162;18.294;2023-04-15T07:45:06;13.35;;;3.38;;
58681;SDS011;44460;40.162;18.294;2023-04-15T07:47:32;15.35;;;3.35;;
58681;SDS011;44460;40.162;18.294;2023-04-15T07:49:58;17.80;;;3.90;;
58681;SDS011;44460;40.162;18.294;2023-04-15T07:52:24;13.38;;;3.08;;
58681;SDS011;44460;40.162;18.294;2023-04-15T07:54:49;15.32;;;3.17;;
58681;SDS011;44460;40.162;18.294;2023-04-15T07:57:15;19.00;;;3.38;;
58681;SDS011;44460;40.162;18.294;2023-04-15T07:59:41;12.48;;;3.03;;
58681;SDS011;44460;40.162;18.294;2023-04-15T08:02:07;21.27;;;4.18;;
58681;SDS011;44460;40.162;18.294;2023-04-15T08:04:32;20.20;;;3.33;;
58681;SDS011;44460;40.162;18.294;2023-04-15T08:06:58;16.58;;;3.15;;
58681;SDS011;44460;40.162;18.294;2023-04-15T08:09:24;17.90;;;3.10;;
58681;SDS011;44460;40.162;18.294;2023-04-15T08:11:51;10.77;;;3.15;;
58681;SDS011;44460;40.162;18.294;2023-04-15T08:14:16;13.30;;;2.67;;
58681;SDS011;44460;40.162;18.294;2023-04-15T08:16:42;9.90;;;2.00;;
58681;SDS011;44460;40.162;18.294;2023-04-15T08:19:07;13.40;;;2.60;;
58681;SDS011;44460;40.162;18.294;2023-04-15T08:21:33;13.23;;;2.55;;
58681;SDS011;44460;40.162;18.294;2023-04-15T08:23:59;18.90;;;2.80;;
58681;SDS011;44460;40.162;18.294;2023-04-15T08:26:24;11.07;;;2.70;;
58681;SDS011;44460;40.162;18.294;2023-04-15T08:28:50;10.70;;;2.28;;
58681;SDS011;44460;40.162;18.294;2023-04-15T08:31:17;9.40;;;2.65;;
58681;SDS011;44460;40.162;18.294;2023-04-15T08:33:43;6.97;;;1.70;;
58681;SDS011;44460;40.162;18.294;2023-04-15T08:36:09;13.10;;;3.00;;
58681;SDS011;44460;40.162;18.294;2023-04-15T08:38:35;13.45;;;2.40;;
58681;SDS011;44460;40.162;18.294;2023-04-15T08:41:02;7.10;;;2.53;;
58681;SDS011;44460;40.162;18.294;2023-04-15T08:43:32;15.55;;;3.00;;
58681;SDS011;44460;40.162;18.294;2023-04-15T08:45:58;11.25;;;2.67;;
58681;SDS011;44460;40.162;18.294;2023-04-15T08:48:29;12.23;;;2.53;;
58681;SDS011;44460;40.162;18.294;2023-04-15T08:50:57;13.85;;;3.25;;
58681;SDS011;44460;40.162;18.294;2023-04-15T08:53:23;12.20;;;2.92;;
58681;SDS011;44460;40.162;18.294;2023-04-15T08:55:50;12.20;;;3.03;;
58681;SDS011;44460;40.162;18.294;2023-04-15T08:58:16;12.43;;;2.95;;
58681;SDS011;44460;40.162;18.294;2023-04-15T09:00:43;12.80;;;3.03;;
58681;SDS011;44460;40.162;18.294;2023-04-15T09:03:08;11.55;;;2.70;;
58681;SDS011;44460;40.162;18.294;2023-04-15T09:05:35;10.98;;;2.28;;
58681;SDS011;44460;40.162;18.294;2023-04-15T09:08:01;13.35;;;2.67;;
58681;SDS011;44460;40.162;18.294;2023-04-15T09:10:27;12.93;;;2.83;;
58681;SDS011;44460;40.162;18.294;2023-04-15T09:12:53;14.43;;;2.53;;
58681;SDS011;44460;40.162;18.294;2023-04-15T09:15:18;13.50;;;2.30;;
58681;SDS011;44460;40.162;18.294;2023-04-15T09:17:44;14.45;;;2.75;;
58681;SDS011;44460;40.162;18.294;2023-04-15T09:20:11;13.60;;;2.60;;
58681;SDS011;44460;40.162;18.294;2023-04-15T09:22:38;9.65;;;2.42;;
58681;SDS011;44460;40.162;18.294;2023-04-15T09:25:12;9.30;;;2.70;;
58681;SDS011;44460;40.162;18.294;2023-04-15T09:27:59;12.77;;;2.75;;
58681;SDS011;44460;40.162;18.294;2023-04-15T09:30:26;12.25;;;2.35;;
58681;SDS011;44460;40.162;18.294;2023-04-15T09:32:52;9.13;;;2.10;;
58681;SDS011;44460;40.162;18.294;2023-04-15T09:35:18;12.32;;;2.50;;
58681;SDS011;44460;40.162;18.294;2023-04-15T09:37:44;10.43;;;1.80;;
58681;SDS011;44460;40.162;18.294;2023-04-15T09:40:10;9.93;;;2.10;;
58681;SDS011;44460;40.162;18.294;2023-04-15T09:42:36;12.75;;;2.28;;
58681;SDS011;44460;40.162;18.294;2023-04-15T09:45:10;13.80;;;2.70;;
58681;SDS011;44460;40.162;18.294;2023-04-15T09:47:36;9.57;;;2.10;;
58681;SDS011;44460;40.162;18.294;2023-04-15T09:50:02;8.85;;;2.28;;
58681;SDS011;44460;40.162;18.294;2023-04-15T09:52:27;10.20;;;2.60;;
58681;SDS011;44460;40.162;18.294;2023-04-15T09:54:53;15.23;;;2.40;;
58681;SDS011;44460;40.162;18.294;2023-04-15T09:57:20;9.68;;;2.38;;
58681;SDS011;44460;40.162;18.294;2023-04-15T09:59:46;14.07;;;3.15;;
58681;SDS011;44460;40.162;18.294;2023-04-15T10:02:12;9.52;;;2.63;;
58681;SDS011;44460;40.162;18.294;2023-04-15T10:04:39;11.48;;;2.60;;
58681;SDS011;44460;40.162;18.294;2023-04-15T10:07:04;7.25;;;2.05;;
58681;SDS011;44460;40.162;18.294;2023-04-15T10:09:30;10.25;;;2.60;;
58681;SDS011;44460;40.162;18.294;2023-04-15T10:11:58;10.55;;;2.55;;
58681;SDS011;44460;40.162;18.294;2023-04-15T10:14:25;11.85;;;2.92;;
58681;SDS011;44460;40.162;18.294;2023-04-15T10:16:51;12.43;;;2.65;;
58681;SDS011;44460;40.162;18.294;2023-04-15T10:19:18;10.25;;;2.70;;
58681;SDS011;44460;40.162;18.294;2023-04-15T10:21:46;13.35;;;2.63;;
58681;SDS011;44460;40.162;18.294;2023-04-15T10:24:11;12.75;;;2.95;;
58681;SDS011;44460;40.162;18.294;2023-04-15T10:26:37;17.35;;;2.78;;
58681;SDS011;44460;40.162;18.294;2023-04-15T10:29:02;11.30;;;2.40;;
58681;SDS011;44460;40.162;18.294;2023-04-15T10:31:29;12.05;;;2.67;;
58681;SDS011;44460;40.162;18.294;2023-04-15T10:33:54;16.90;;;2.40;;
58681;SDS011;44460;40.162;18.294;2023-04-15T10:36:20;9.73;;;2.50;;
58681;SDS011;44460;40.162;18.294;2023-04-15T10:38:46;15.85;;;3.13;;
58681;SDS011;44460;40.162;18.294;2023-04-15T10:41:12;9.43;;;2.30;;
58681;SDS011;44460;40.162;18.294;2023-04-15T10:43:39;11.57;;;2.40;;
58681;SDS011;44460;40.162;18.294;2023-04-15T10:46:04;12.43;;;2.63;;
58681;SDS011;44460;40.162;18.294;2023-04-15T10:48:30;12.85;;;2.40;;
58681;SDS011;44460;40.162;18.294;2023-04-15T10:51:29;11.25;;;1.92;;
58681;SDS011;44460;40.162;18.294;2023-04-15T10:53:56;11.85;;;1.85;;
58681;SDS011;44460;40.162;18.294;2023-04-15T10:56:22;13.35;;;1.85;;
58681;SDS011;44460;40.162;18.294;2023-04-15T10:58:48;15.23;;;2.60;;
58681;SDS011;44460;40.162;18.294;2023-04-15T11:01:13;11.98;;;2.38;;
58681;SDS011;44460;40.162;18.294;2023-04-15T11:03:40;9.75;;;2.50;;
58681;SDS011;44460;40.162;18.294;2023-04-15T11:11:16;12.70;;;2.92;;
58681;SDS011;44460;40.162;18.294;2023-04-15T11:13:48;19.83;;;5.05;;
58681;SDS011;44460;40.162;18.294;2023-04-15T11:16:14;13.32;;;4.25;;
58681;SDS011;44460;40.162;18.294;2023-04-15T11:18:40;17.40;;;4.80;;
58681;SDS011;44460;40.162;18.294;2023-04-15T11:21:06;14.80;;;3.05;;
58681;SDS011;44460;40.162;18.294;2023-04-15T11:23:33;8.93;;;1.77;;
58681;SDS011;44460;40.162;18.294;2023-04-15T11:25:59;7.33;;;2.00;;
58681;SDS011;44460;40.162;18.294;2023-04-15T11:28:25;14.23;;;2.28;;
58681;SDS011;44460;40.162;18.294;2023-04-15T11:30:52;16.13;;;4.10;;
58681;SDS011;44460;40.162;18.294;2023-04-15T11:33:18;11.27;;;2.10;;
58681;SDS011;44460;40.162;18.294;2023-04-15T11:35:43;14.50;;;2.08;;
58681;SDS011;44460;40.162;18.294;2023-04-15T11:38:12;6.95;;;1.55;;
58681;SDS011;44460;40.162;18.294;2023-04-15T11:40:38;10.38;;;2.10;;
58681;SDS011;44460;40.162;18.294;2023-04-15T11:43:07;11.93;;;1.92;;
58681;SDS011;44460;40.162;18.294;2023-04-15T11:45:33;9.68;;;2.92;;
58681;SDS011;44460;40.162;18.294;2023-04-15T11:48:07;14.10;;;2.25;;
58681;SDS011;44460;40.162;18.294;2023-04-15T11:50:34;7.22;;;2.08;;
58681;SDS011;44460;40.162;18.294;2023-04-15T11:53:01;9.82;;;2.30;;
58681;SDS011;44460;40.162;18.294;2023-04-15T11:55:27;9.50;;;2.00;;
58681;SDS011;44460;40.162;18.294;2023-04-15T11:58:09;11.77;;;2.28;;
58681;SDS011;44460;40.162;18.294;2023-04-15T12:00:35;10.27;;;2.08;;
58681;SDS011;44460;40.162;18.294;2023-04-15T12:11:14;7.45;;;1.70;;
58681;SDS011;44460;40.162;18.294;2023-04-15T12:13:44;14.23;;;2.33;;
58681;SDS011;44460;40.162;18.294;2023-04-15T12:16:10;10.77;;;2.42;;
58681;SDS011;44460;40.162;18.294;2023-04-15T12:18:38;6.97;;;1.67;;
58681;SDS011;44460;40.162;18.294;2023-04-15T12:21:13;10.57;;;2.15;;
58681;SDS011;44460;40.162;18.294;2023-04-15T12:23:48;9.85;;;2.00;;
58681;SDS011;44460;40.162;18.294;2023-04-15T12:26:15;10.47;;;2.07;;
58681;SDS011;44460;40.162;18.294;2023-04-15T12:28:41;9.98;;;2.30;;
58681;SDS011;44460;40.162;18.294;2023-04-15T12:31:07;10.07;;;2.33;;
58681;SDS011;44460;40.162;18.294;2023-04-15T12:33:33;10.02;;;2.25;;
58681;SDS011;44460;40.162;18.294;2023-04-15T12:35:58;11.00;;;2.00;;
58681;SDS011;44460;40.162;18.294;2023-04-15T12:38:24;13.48;;;2.15;;
58681;SDS011;44460;40.162;18.294;2023-04-15T12:40:49;7.35;;;1.65;;
58681;SDS011;44460;40.162;18.294;2023-04-15T12:43:15;7.68;;;1.98;;
58681;SDS011;44460;40.162;18.294;2023-04-15T12:45:41;13.40;;;2.35;;
58681;SDS011;44460;40.162;18.294;2023-04-15T12:48:06;9.55;;;1.77;;
58681;SDS011;44460;40.162;18.294;2023-04-15T12:50:34;10.13;;;2.05;;
58681;SDS011;44460;40.162;18.294;2023-04-15T12:52:59;12.77;;;2.30;;
58681;SDS011;44460;40.162;18.294;2023-04-15T12:55:25;8.55;;;2.00;;
58681;SDS011;44460;40.162;18.294;2023-04-15T12:57:50;9.73;;;2.00;;
58681;SDS011;44460;40.162;18.294;2023-04-15T13:00:16;11.55;;;2.40;;
58681;SDS011;44460;40.162;18.294;2023-04-15T13:02:45;9.48;;;2.20;;
58681;SDS011;44460;40.162;18.294;2023-04-15T13:05:11;8.35;;;1.70;;
58681;SDS011;44460;40.162;18.294;2023-04-15T13:07:38;12.48;;;2.20;;
58681;SDS011;44460;40.162;18.294;2023-04-15T13:10:04;7.15;;;1.80;;
58681;SDS011;44460;40.162;18.294;2023-04-15T13:12:30;7.28;;;1.77;;
58681;SDS011;44460;40.162;18.294;2023-04-15T13:14:55;7.13;;;1.77;;
58681;SDS011;44460;40.162;18.294;2023-04-15T13:17:21;12.00;;;2.22;;
58681;SDS011;44460;40.162;18.294;2023-04-15T13:19:46;11.02;;;2.00;;
58681;SDS011;44460;40.162;18.294;2023-04-15T13:22:12;12.65;;;2.20;;
58681;SDS011;44460;40.162;18.294;2023-04-15T13:24:39;7.10;;;1.77;;
58681;SDS011;44460;40.162;18.294;2023-04-15T13:27:05;11.73;;;2.13;;
58681;SDS011;44460;40.162;18.294;2023-04-15T13:29:31;13.05;;;2.30;;
58681;SDS011;44460;40.162;18.294;2023-04-15T13:31:56;12.43;;;2.03;;
58681;SDS011;44460;40.162;18.294;2023-04-15T13:34:22;7.90;;;2.08;;
58681;SDS011;44460;40.162;18.294;2023-04-15T13:36:47;9.80;;;2.08;;
58681;SDS011;44460;40.162;18.294;2023-04-15T13:39:13;9.77;;;1.90;;
58681;SDS011;44460;40.162;18.294;2023-04-15T13:41:38;9.02;;;1.73;;
58681;SDS011;44460;40.162;18.294;2023-04-15T13:44:04;7.78;;;1.95;;
58681;SDS011;44460;40.162;18.294;2023-04-15T13:46:30;10.52;;;3.03;;
58681;SDS011;44460;40.162;18.294;2023-04-15T13:48:55;9.52;;;2.88;;
58681;SDS011;44460;40.162;18.294;2023-04-15T13:51:21;10.73;;;1.83;;
58681;SDS011;44460;40.162;18.294;2023-04-15T13:53:46;10.15;;;3.28;;
58681;SDS011;44460;40.162;18.294;2023-04-15T13:56:12;16.33;;;3.83;;
58681;SDS011;44460;40.162;18.294;2023-04-15T13:58:37;14.75;;;2.25;;
58681;SDS011;44460;40.162;18.294;2023-04-15T14:01:03;14.25;;;2.95;;
58681;SDS011;44460;40.162;18.294;2023-04-15T14:03:28;12.88;;;3.28;;
58681;SDS011;44460;40.162;18.294;2023-04-15T14:05:54;10.02;;;1.83;;
58681;SDS011;44460;40.162;18.294;2023-04-15T14:08:21;22.23;;;2.67;;
58681;SDS011;44460;40.162;18.294;2023-04-15T14:10:47;11.30;;;2.10;;
58681;SDS011;44460;40.162;18.294;2023-04-15T14:13:13;12.35;;;3.40;;
58681;SDS011;44460;40.162;18.294;2023-04-15T14:15:39;17.83;;;2.10;;
58681;SDS011;44460;40.162;18.294;2023-04-15T14:18:05;17.08;;;4.07;;
58681;SDS011;44460;40.162;18.294;2023-04-15T14:20:31;16.20;;;3.17;;
58681;SDS011;44460;40.162;18.294;2023-04-15T14:22:56;7.45;;;2.15;;
58681;SDS011;44460;40.162;18.294;2023-04-15T14:25:21;11.57;;;2.40;;
58681;SDS011;44460;40.162;18.294;2023-04-15T14:27:47;15.20;;;2.47;;
58681;SDS011;44460;40.162;18.294;2023-04-15T14:30:12;14.63;;;3.10;;
58681;SDS011;44460;40.162;18.294;2023-04-15T14:32:38;14.05;;;2.67;;
58681;SDS011;44460;40.162;18.294;2023-04-15T14:35:03;11.07;;;2.55;;